Pagina principale
METAR-TAF:

METAR-TAF

Aeroporti :

Nörvenich, Germania

latitudine: 50-50N, longitudine: 006-40E, altezza: 118 m

Osservazione

Il bollettino è stato emesso 48 minuti fa, alle 11:20 UTC
Vento 8 kt da nord/nord-ovest
Temperature 29°C
Umidità 52%
Pressione 1024 hPa
Visibilità 10 km o più
Poco nuvoloso ad un'altezza di 32000 ft

METAR: ETNN 261120Z 33008KT 9999 FEW320 29/18 Q1024 BLU+BLU+

Ora: 14:08 (12:08 UTC)

Previsione

Il bollettino è stato emesso 2 ore e 8 minuti fa, alle 10:00 UTC
Previsione valida dal 26 alle 11 UTC al 26 alle 20 UTC
Vento 12 kt da nord/nord-ovest
Visibilità 10 km o più
Poco nuvoloso ad un'altezza di 32000 ft

TAF: ETNN 261000Z 2611/2620 33012KT 9999 NSW FEW320 BY ETGL

Osservazioni e previsioni meteorologiche di più di 4000 aeroporti (messaggi METAR e TAF).

Le stazioni disponibili sono rappresentate dai dischi gialli e rossi sulla carta.

Puntare il mouse per vedere il nome della stazione.

Clicca sopra per visualizzare le osservazioni e previsioni meteorologiche.

Per cambiare la mappa : fare clic sui pulsanti verdi con una croce nera per ingrandire, il pulsante verde con un trattino per diminuire, o sulla freccia verde per le mappe adiacenti.


METAR-TAF: